createdAt,value
2019-06-01T00:00:11.991Z,94.66
2019-06-01T00:02:40.807Z,94.99
2019-06-01T00:05:10.542Z,95.62
2019-06-01T00:07:39.283Z,95.42
2019-06-01T00:10:09.854Z,94.73
2019-06-01T00:12:39.294Z,94.54
2019-06-01T00:15:09.087Z,95.11
2019-06-01T00:17:37.837Z,96.12
2019-06-01T00:20:06.603Z,96.52
2019-06-01T00:22:35.412Z,96.45
2019-06-01T00:25:06.924Z,97.60
2019-06-01T00:27:35.667Z,97.72
2019-06-01T00:30:06.826Z,98.09
2019-06-01T00:32:35.573Z,98.01
2019-06-01T00:35:06.824Z,98.86
2019-06-01T00:37:35.722Z,98.88
2019-06-01T00:40:07.102Z,98.70
2019-06-01T00:42:36.071Z,98.90
2019-06-01T00:45:07.265Z,99.07
2019-06-01T00:47:36.018Z,97.86
2019-06-01T00:50:08.221Z,98.26
2019-06-01T00:52:36.987Z,98.55
2019-06-01T00:55:07.194Z,97.93
2019-06-01T00:57:36.098Z,97.80
2019-06-01T01:00:08.161Z,98.27
2019-06-01T01:02:36.972Z,97.55
2019-06-01T01:05:14.562Z,98.16
2019-06-01T01:07:44.529Z,98.09
2019-06-01T01:10:14.179Z,98.08
2019-06-01T01:13:00.924Z,96.90
2019-06-01T01:15:29.768Z,97.21
2019-06-01T01:17:58.511Z,97.26
2019-06-01T01:20:27.263Z,98.37
2019-06-01T01:22:56.479Z,98.76
2019-06-01T01:25:25.896Z,98.87
2019-06-01T01:27:54.864Z,99.42
2019-06-01T01:30:23.687Z,98.71
2019-06-01T01:32:53.591Z,98.54
2019-06-01T01:35:22.924Z,98.27
2019-06-01T01:37:52.012Z,99.26
2019-06-01T01:40:20.819Z,99.49
2019-06-01T01:42:50.563Z,99.70
2019-06-01T01:45:19.946Z,99.40
2019-06-01T01:47:49.425Z,99.48
2019-06-01T01:50:19.354Z,99.74
2019-06-01T01:52:48.189Z,99.54
2019-06-01T01:55:16.929Z,99.75
2019-06-01T01:57:45.811Z,100.00
2019-06-01T02:00:15.972Z,100.00
2019-06-01T02:02:46.204Z,100.00
2019-06-01T02:05:14.996Z,100.00
2019-06-01T02:07:43.752Z,99.82
2019-06-01T02:10:12.638Z,99.24
2019-06-01T02:12:41.294Z,99.21
2019-06-01T02:15:10.832Z,99.75
2019-06-01T02:17:39.714Z,99.96
2019-06-01T02:20:08.573Z,100.00
2019-06-01T02:22:37.315Z,99.74
2019-06-01T02:25:07.557Z,100.00
2019-06-01T02:27:36.314Z,100.00
2019-06-01T02:30:07.825Z,100.00
2019-06-01T02:32:36.706Z,100.00
2019-06-01T02:35:08.751Z,100.00
2019-06-01T02:37:37.497Z,100.00
2019-06-01T02:40:08.193Z,100.00
2019-06-01T02:42:36.934Z,100.00
2019-06-01T02:45:11.062Z,100.00
2019-06-01T02:47:39.954Z,100.00
2019-06-01T02:50:10.220Z,100.00
2019-06-01T02:52:39.263Z,100.00
2019-06-01T02:55:10.985Z,100.00
2019-06-01T02:57:39.730Z,100.00
2019-06-01T03:00:09.984Z,100.00
2019-06-01T03:02:39.702Z,100.00
2019-06-01T03:05:08.453Z,100.00
2019-06-01T03:07:39.852Z,100.00
2019-06-01T03:10:09.010Z,100.00
2019-06-01T03:12:40.692Z,100.00
2019-06-01T03:15:09.454Z,100.00
2019-06-01T03:17:41.132Z,100.00
2019-06-01T03:20:10.089Z,100.00
2019-06-01T03:22:40.958Z,100.00
2019-06-01T03:25:09.831Z,100.00
2019-06-01T03:27:40.166Z,100.00
2019-06-01T03:30:14.540Z,100.00
2019-06-01T03:32:41.817Z,100.00
2019-06-01T03:35:13.095Z,100.00
2019-06-01T03:37:42.066Z,100.00
2019-06-01T03:40:19.717Z,100.00
2019-06-01T03:42:41.299Z,100.00
2019-06-01T03:45:10.238Z,100.00
2019-06-01T03:47:38.992Z,100.00
2019-06-01T03:50:09.136Z,100.00
2019-06-01T03:52:38.428Z,100.00
2019-06-01T03:55:07.806Z,99.82
2019-06-01T03:57:37.354Z,99.72
2019-06-01T04:00:09.410Z,99.42
2019-06-01T04:02:38.986Z,98.68
2019-06-01T04:05:07.860Z,98.57
2019-06-01T04:07:38.907Z,98.28
2019-06-01T04:10:09.820Z,97.63
2019-06-01T04:12:39.041Z,96.95
2019-06-01T04:15:12.801Z,95.21
2019-06-01T04:17:38.974Z,95.21
2019-06-01T04:20:08.257Z,94.36
2019-06-01T04:22:37.061Z,93.00
2019-06-01T04:25:08.299Z,90.60
2019-06-01T04:27:37.175Z,86.11
2019-06-01T04:30:09.426Z,84.86
2019-06-01T04:32:49.415Z,80.27
2019-06-01T04:35:09.072Z,78.34
2019-06-01T04:37:37.917Z,78.83
2019-06-01T04:40:07.530Z,80.34
2019-06-01T04:42:36.359Z,80.14
2019-06-01T04:45:10.789Z,73.23
2019-06-01T04:47:39.652Z,70.95
2019-06-01T04:50:08.856Z,68.44
2019-06-01T04:52:37.591Z,69.24
2019-06-01T04:55:08.940Z,71.27
2019-06-01T04:57:38.013Z,74.06
2019-06-01T05:00:12.623Z,75.90
2019-06-01T05:02:38.419Z,80.97
2019-06-01T05:05:09.348Z,81.82
2019-06-01T05:07:38.481Z,81.10
2019-06-01T05:10:07.834Z,84.63
2019-06-01T05:12:38.054Z,80.44
2019-06-01T05:15:10.116Z,76.64
2019-06-01T05:17:39.008Z,71.41
2019-06-01T05:20:08.267Z,66.26
2019-06-01T05:22:37.471Z,62.46
2019-06-01T05:25:09.033Z,62.46
2019-06-01T05:27:38.461Z,62.46
2019-06-01T05:30:09.482Z,52.50
2019-06-01T05:32:38.304Z,49.71
2019-06-01T05:35:09.660Z,49.14
2019-06-01T05:37:40.426Z,49.14
2019-06-01T05:40:12.441Z,46.87
2019-06-01T05:42:41.652Z,46.15
2019-06-01T05:45:11.377Z,45.75
2019-06-01T05:47:40.200Z,44.42
2019-06-01T05:50:10.601Z,44.82
2019-06-01T05:52:39.838Z,46.58
2019-06-01T05:55:10.287Z,48.39
2019-06-01T05:57:39.690Z,50.13
2019-06-01T06:00:11.326Z,49.60
2019-06-01T06:02:40.200Z,48.71
2019-06-01T06:05:10.609Z,50.66
2019-06-01T06:07:39.808Z,51.02
2019-06-01T06:10:11.843Z,51.12
2019-06-01T06:12:40.896Z,51.70
2019-06-01T06:15:11.349Z,52.45
2019-06-01T06:17:40.499Z,52.06
2019-06-01T06:20:09.273Z,51.26
2019-06-01T06:22:41.134Z,49.81
2019-06-01T06:25:08.552Z,50.60
2019-06-01T06:27:37.290Z,50.91
2019-06-01T06:30:08.050Z,50.99
2019-06-01T06:32:36.719Z,51.54
2019-06-01T06:35:07.265Z,52.64
2019-06-01T06:37:37.625Z,52.57
2019-06-01T06:40:09.547Z,52.57
2019-06-01T06:42:38.303Z,53.87
2019-06-01T06:45:09.773Z,52.97
2019-06-01T06:47:38.524Z,53.72
2019-06-01T06:50:08.426Z,53.69
2019-06-01T06:52:37.348Z,52.43
2019-06-01T06:55:07.336Z,51.73
2019-06-01T06:57:36.075Z,53.59
2019-06-01T07:00:09.663Z,52.28
2019-06-01T07:02:38.456Z,52.96
2019-06-01T07:05:08.563Z,53.96
2019-06-01T07:07:37.318Z,54.09
2019-06-01T07:10:07.771Z,54.64
2019-06-01T07:12:36.539Z,53.30
2019-06-01T07:15:07.682Z,53.67
2019-06-01T07:17:36.434Z,53.55
2019-06-01T07:20:07.631Z,52.08
2019-06-01T07:22:36.512Z,52.03
2019-06-01T07:25:06.545Z,51.13
2019-06-01T07:27:35.292Z,50.73
2019-06-01T07:30:09.322Z,50.69
2019-06-01T07:32:38.061Z,49.57
2019-06-01T07:35:08.335Z,49.44
2019-06-01T07:37:37.093Z,49.00
2019-06-01T07:40:12.963Z,49.80
2019-06-01T07:42:38.478Z,50.29
2019-06-01T07:45:09.204Z,50.82
2019-06-01T07:47:37.926Z,49.43
2019-06-01T07:50:09.785Z,51.35
2019-06-01T07:52:38.733Z,50.78
2019-06-01T07:55:14.185Z,50.98
2019-06-01T07:57:44.236Z,51.18
2019-06-01T08:00:14.012Z,51.26
2019-06-01T08:02:42.821Z,49.21
2019-06-01T08:05:11.657Z,49.90
2019-06-01T08:07:40.435Z,50.24
2019-06-01T08:10:09.298Z,51.97
2019-06-01T08:12:38.473Z,50.60
2019-06-01T08:15:12.031Z,51.89
2019-06-01T08:17:40.780Z,50.20
2019-06-01T08:20:11.042Z,49.33
2019-06-01T08:22:41.426Z,50.47
2019-06-01T08:25:10.161Z,52.42
2019-06-01T08:27:41.538Z,52.95
2019-06-01T08:30:12.911Z,50.73
2019-06-01T08:32:42.706Z,51.55
2019-06-01T08:35:11.964Z,50.54
2019-06-01T08:37:40.857Z,52.11
2019-06-01T08:40:10.034Z,50.98
2019-06-01T08:42:42.550Z,48.93
2019-06-01T08:45:11.884Z,48.93
2019-06-01T08:47:40.841Z,49.61
2019-06-01T08:50:09.833Z,48.90
2019-06-01T08:52:40.321Z,50.57
2019-06-01T08:55:09.656Z,50.15
2019-06-01T08:57:38.422Z,49.16
2019-06-01T09:00:10.299Z,49.20
2019-06-01T09:02:39.445Z,49.68
2019-06-01T09:05:23.080Z,49.73
2019-06-01T09:07:38.868Z,48.30
2019-06-01T09:10:11.408Z,48.66
2019-06-01T09:12:40.150Z,47.49
2019-06-01T09:15:09.615Z,48.31
2019-06-01T09:17:38.443Z,46.98
2019-06-01T09:20:08.485Z,47.67
2019-06-01T09:22:37.259Z,47.64
2019-06-01T09:25:06.794Z,48.66
2019-06-01T09:27:36.102Z,46.34
2019-06-01T09:30:10.712Z,46.44
2019-06-01T09:32:39.492Z,47.57
2019-06-01T09:35:08.627Z,47.00
2019-06-01T09:37:39.220Z,46.84
2019-06-01T09:40:08.877Z,45.35
2019-06-01T09:42:52.149Z,45.35
2019-06-01T09:45:34.567Z,46.25
2019-06-01T09:48:16.224Z,45.72
2019-06-01T09:50:54.583Z,45.39
2019-06-01T09:53:23.864Z,44.84
2019-06-01T09:56:03.315Z,44.94
2019-06-01T09:58:54.193Z,44.93
2019-06-01T10:01:37.195Z,44.04
2019-06-01T10:04:21.440Z,44.15
2019-06-01T10:06:51.277Z,44.81
2019-06-01T10:09:20.025Z,44.59
2019-06-01T10:11:48.794Z,43.28
2019-06-01T10:14:17.581Z,44.34
2019-06-01T10:16:46.358Z,45.88
2019-06-01T10:19:15.421Z,44.88
2019-06-01T10:21:44.282Z,45.47
2019-06-01T10:24:13.304Z,45.01
2019-06-01T10:26:42.119Z,44.90
2019-06-01T10:29:11.837Z,45.08
2019-06-01T10:31:41.652Z,43.33
2019-06-01T10:34:11.712Z,42.71
2019-06-01T10:36:43.499Z,42.27
2019-06-01T10:39:12.261Z,43.03
2019-06-01T10:41:51.837Z,42.94
2019-06-01T10:44:21.939Z,41.40
2019-06-01T10:46:50.830Z,41.72
2019-06-01T10:49:19.928Z,42.62
2019-06-01T10:51:49.216Z,43.42
2019-06-01T10:54:19.808Z,44.03
2019-06-01T10:56:48.676Z,42.63
2019-06-01T10:59:18.336Z,43.53
2019-06-01T11:01:47.086Z,45.08
2019-06-01T11:04:15.874Z,44.21
2019-06-01T11:06:48.635Z,43.83
2019-06-01T11:09:15.950Z,41.42
2019-06-01T11:11:53.714Z,41.98
2019-06-01T11:14:31.281Z,43.74
2019-06-01T11:17:08.697Z,42.23
2019-06-01T11:19:57.814Z,42.42
2019-06-01T11:22:27.871Z,42.08
2019-06-01T11:24:56.867Z,41.24
2019-06-01T11:27:26.482Z,40.87
2019-06-01T11:29:55.701Z,42.89
2019-06-01T11:32:24.470Z,42.96
2019-06-01T11:34:53.350Z,42.58
2019-06-01T11:37:22.225Z,42.28
2019-06-01T11:39:51.036Z,42.86
2019-06-01T11:42:20.239Z,42.02
2019-06-01T11:44:49.389Z,40.85
2019-06-01T11:47:18.332Z,40.45
2019-06-01T11:50:09.955Z,40.05
2019-06-01T11:52:57.331Z,39.04
2019-06-01T11:55:48.166Z,39.95
2019-06-01T11:58:39.398Z,40.43
2019-06-01T12:01:22.793Z,41.49
2019-06-01T12:04:06.744Z,39.89
2019-06-01T12:06:37.710Z,42.41
2019-06-01T12:09:09.653Z,41.40
2019-06-01T12:11:39.808Z,41.38
2019-06-01T12:14:08.941Z,40.37
2019-06-01T12:16:38.302Z,38.46
2019-06-01T12:19:07.506Z,41.12
2019-06-01T12:21:37.051Z,40.79
2019-06-01T12:24:06.514Z,39.91
2019-06-01T12:26:37.251Z,39.02
2019-06-01T12:29:06.543Z,37.32
2019-06-01T12:31:35.327Z,39.40
2019-06-01T12:34:04.274Z,39.95
2019-06-01T12:36:33.108Z,40.40
2019-06-01T12:39:01.857Z,36.73
2019-06-01T12:41:30.598Z,37.71
2019-06-01T12:44:09.956Z,37.39
2019-06-01T12:46:40.058Z,38.22
2019-06-01T12:49:08.867Z,40.41
2019-06-01T12:51:37.781Z,38.64
2019-06-01T12:54:10.633Z,36.37
2019-06-01T12:56:40.618Z,37.12
2019-06-01T12:59:09.781Z,37.67
2019-06-01T13:01:38.542Z,36.98
2019-06-01T13:04:07.325Z,38.66
2019-06-01T13:06:36.073Z,37.66
2019-06-01T13:09:08.261Z,36.23
2019-06-01T13:11:37.535Z,36.75
2019-06-01T13:14:06.449Z,37.14
2019-06-01T13:16:35.215Z,37.56
2019-06-01T13:19:03.982Z,38.62
2019-06-01T13:21:32.897Z,36.67
2019-06-01T13:24:01.642Z,35.93
2019-06-01T13:26:30.431Z,37.88
2019-06-01T13:28:59.618Z,39.06
2019-06-01T13:31:28.407Z,38.76
2019-06-01T13:33:57.151Z,37.27
2019-06-01T13:36:26.031Z,37.03
2019-06-01T13:38:54.904Z,38.66
2019-06-01T13:41:23.824Z,39.64
2019-06-01T13:43:53.551Z,37.76
2019-06-01T13:46:22.693Z,39.83
2019-06-01T13:48:52.677Z,38.72
2019-06-01T13:51:22.046Z,38.55
2019-06-01T13:53:50.856Z,39.70
2019-06-01T13:56:19.606Z,37.60
2019-06-01T13:58:48.358Z,36.92
2019-06-01T14:01:17.398Z,37.69
2019-06-01T14:03:47.191Z,39.14
2019-06-01T14:06:16.061Z,38.50
2019-06-01T14:08:45.049Z,38.62
2019-06-01T14:11:13.928Z,37.18
2019-06-01T14:13:42.771Z,36.47
2019-06-01T14:16:12.183Z,38.53
2019-06-01T14:18:43.012Z,36.91
2019-06-01T14:21:12.397Z,36.72
2019-06-01T14:23:41.328Z,37.11
2019-06-01T14:26:10.106Z,36.00
2019-06-01T14:28:39.248Z,34.81
2019-06-01T14:31:08.568Z,36.24
2019-06-01T14:33:37.322Z,37.40
2019-06-01T14:36:06.130Z,37.10
2019-06-01T14:38:46.612Z,37.26
2019-06-01T14:41:05.442Z,35.71
2019-06-01T14:43:34.529Z,36.13
2019-06-01T14:46:03.328Z,37.25
2019-06-01T14:48:32.267Z,36.83
2019-06-01T14:51:01.494Z,35.33
2019-06-01T14:53:30.951Z,37.01
2019-06-01T14:56:02.873Z,36.30
2019-06-01T14:58:32.941Z,35.71
2019-06-01T15:01:02.062Z,37.98
2019-06-01T15:03:30.882Z,37.42
2019-06-01T15:05:59.689Z,38.70
2019-06-01T15:08:28.468Z,39.56
2019-06-01T15:10:58.786Z,37.27
2019-06-01T15:13:27.686Z,37.66
2019-06-01T15:15:57.578Z,38.67
2019-06-01T15:18:27.183Z,36.57
2019-06-01T15:20:55.980Z,35.51
2019-06-01T15:23:25.025Z,38.75
2019-06-01T15:25:54.570Z,38.47
2019-06-01T15:28:24.103Z,38.07
2019-06-01T15:30:52.997Z,38.57
2019-06-01T15:33:21.783Z,38.77
2019-06-01T15:35:52.218Z,38.41
2019-06-01T15:38:21.205Z,38.43
2019-06-01T15:40:51.738Z,38.88
2019-06-01T15:43:21.745Z,37.70
2019-06-01T15:45:51.210Z,38.82
2019-06-01T15:48:23.254Z,39.00
2019-06-01T15:50:51.988Z,37.50
2019-06-01T15:53:20.759Z,40.18
2019-06-01T15:55:49.550Z,39.77
2019-06-01T15:58:18.372Z,39.63
2019-06-01T16:00:47.880Z,37.98
2019-06-01T16:03:16.615Z,40.98
2019-06-01T16:05:45.385Z,42.39
2019-06-01T16:08:14.192Z,41.07
2019-06-01T16:10:42.959Z,40.79
2019-06-01T16:13:11.703Z,41.91
2019-06-01T16:15:40.490Z,42.92
2019-06-01T16:18:09.249Z,41.78
2019-06-01T16:20:38.039Z,43.00
2019-06-01T16:23:09.530Z,41.17
2019-06-01T16:25:39.191Z,42.56
2019-06-01T16:28:08.182Z,43.25
2019-06-01T16:30:41.654Z,42.85
2019-06-01T16:33:10.707Z,40.65
2019-06-01T16:35:39.575Z,42.98
2019-06-01T16:38:08.377Z,42.43
2019-06-01T16:40:37.168Z,43.88
2019-06-01T16:43:06.007Z,45.93
2019-06-01T16:45:34.775Z,46.96
2019-06-01T16:48:03.902Z,46.63
2019-06-01T16:50:32.728Z,45.30
2019-06-01T16:53:02.132Z,43.92
2019-06-01T16:55:31.678Z,44.21
2019-06-01T16:58:03.733Z,45.63
2019-06-01T17:00:31.671Z,46.83
2019-06-01T17:03:00.645Z,45.24
2019-06-01T17:05:29.505Z,45.20
2019-06-01T17:07:58.740Z,44.77
2019-06-01T17:10:28.296Z,47.52
2019-06-01T17:12:57.037Z,47.77
2019-06-01T17:15:26.243Z,46.95
2019-06-01T17:17:55.089Z,45.88
2019-06-01T17:20:38.989Z,47.57
2019-06-01T17:23:24.184Z,45.46
2019-06-01T17:25:38.491Z,45.22
2019-06-01T17:28:07.308Z,45.32
2019-06-01T17:30:36.186Z,47.15
2019-06-01T17:33:06.525Z,45.90
2019-06-01T17:35:36.342Z,46.15
2019-06-01T17:38:07.455Z,47.60
2019-06-01T17:40:41.382Z,48.41
2019-06-01T17:43:08.784Z,51.44
2019-06-01T17:45:39.175Z,48.09
2019-06-01T17:48:24.808Z,52.02
2019-06-01T17:50:42.476Z,54.15
2019-06-01T17:53:11.265Z,53.57
2019-06-01T17:55:40.475Z,52.98
2019-06-01T17:58:12.532Z,54.49
2019-06-01T18:00:42.604Z,55.03
2019-06-01T18:03:12.454Z,55.98
2019-06-01T18:05:41.298Z,55.20
2019-06-01T18:08:10.498Z,56.09
2019-06-01T18:10:53.148Z,53.79
2019-06-01T18:13:13.316Z,53.10
2019-06-01T18:15:42.111Z,52.72
2019-06-01T18:18:11.005Z,53.53
2019-06-01T18:20:40.033Z,54.55
2019-06-01T18:23:10.179Z,55.69
2019-06-01T18:25:39.756Z,56.92
2019-06-01T18:28:15.048Z,54.97
2019-06-01T18:30:39.652Z,54.06
2019-06-01T18:33:09.053Z,53.67
2019-06-01T18:35:38.006Z,53.51
2019-06-01T18:38:07.814Z,52.54
2019-06-01T18:40:37.199Z,52.66
2019-06-01T18:43:12.202Z,52.68
2019-06-01T18:45:41.707Z,53.12
2019-06-01T18:48:14.457Z,55.29
2019-06-01T18:50:44.620Z,56.32
2019-06-01T18:53:14.180Z,53.04
2019-06-01T18:55:43.969Z,53.61
2019-06-01T18:58:14.805Z,53.99
2019-06-01T19:00:47.988Z,53.70
2019-06-01T19:03:18.833Z,53.72
2019-06-01T19:05:47.986Z,52.79
2019-06-01T19:08:17.709Z,53.53
2019-06-01T19:10:48.250Z,54.69
2019-06-01T19:13:17.925Z,53.58
2019-06-01T19:15:47.026Z,53.70
2019-06-01T19:18:17.066Z,54.83
2019-06-01T19:20:48.587Z,54.19
2019-06-01T19:23:21.682Z,55.68
2019-06-01T19:25:48.367Z,56.06
2019-06-01T19:28:17.810Z,55.89
2019-06-01T19:30:48.582Z,53.72
2019-06-01T19:33:19.415Z,54.70
2019-06-01T19:35:50.316Z,55.70
2019-06-01T19:38:21.942Z,57.40
2019-06-01T19:40:50.703Z,58.83
2019-06-01T19:43:19.718Z,60.52
2019-06-01T19:45:49.489Z,61.49
2019-06-01T19:48:18.958Z,62.83
2019-06-01T19:50:48.484Z,63.35
2019-06-01T19:53:32.493Z,64.63
2019-06-01T19:55:56.979Z,65.37
2019-06-01T19:58:35.772Z,66.29
2019-06-01T20:01:12.357Z,66.84
2019-06-01T20:03:41.501Z,67.62
2019-06-01T20:06:15.386Z,67.99
2019-06-01T20:08:44.661Z,68.75
2019-06-01T20:11:13.635Z,68.98
2019-06-01T20:13:42.835Z,69.53
2019-06-01T20:16:14.728Z,69.87
2019-06-01T20:18:43.930Z,70.26
2019-06-01T20:21:13.869Z,70.84
2019-06-01T20:23:43.125Z,71.07
2019-06-01T20:26:13.188Z,71.34
2019-06-01T20:28:42.307Z,71.67
2019-06-01T20:31:13.742Z,72.03
2019-06-01T20:33:43.760Z,72.54
2019-06-01T20:36:13.909Z,72.48
2019-06-01T20:38:43.569Z,73.11
2019-06-01T20:41:13.267Z,73.37
2019-06-01T20:43:43.593Z,73.65
2019-06-01T20:46:14.601Z,74.12
2019-06-01T20:48:43.870Z,74.19
2019-06-01T20:51:14.625Z,74.40
2019-06-01T20:53:44.697Z,74.76
2019-06-01T20:56:13.522Z,75.07
2019-06-01T20:58:42.279Z,75.48
2019-06-01T21:01:13.897Z,75.83
2019-06-01T21:03:43.426Z,76.24
2019-06-01T21:06:13.751Z,76.14
2019-06-01T21:08:43.946Z,76.46
2019-06-01T21:11:13.921Z,77.00
2019-06-01T21:13:44.159Z,77.12
2019-06-01T21:16:14.072Z,77.21
2019-06-01T21:18:43.246Z,77.44
2019-06-01T21:21:12.026Z,77.86
2019-06-01T21:23:41.003Z,77.82
2019-06-01T21:26:09.764Z,77.99
2019-06-01T21:28:38.575Z,78.01
2019-06-01T21:31:07.622Z,78.63
2019-06-01T21:33:36.430Z,79.20
2019-06-01T21:36:15.337Z,79.30
2019-06-01T21:38:49.555Z,79.48
2019-06-01T21:41:25.747Z,79.59
2019-06-01T21:44:06.755Z,79.75
2019-06-01T21:46:38.895Z,79.88
2019-06-01T21:49:08.071Z,79.78
2019-06-01T21:51:36.835Z,79.98
2019-06-01T21:54:05.931Z,80.50
2019-06-01T21:56:34.703Z,80.33
2019-06-01T21:59:03.513Z,80.79
2019-06-01T22:01:34.971Z,81.43
2019-06-01T22:04:07.487Z,82.15
2019-06-01T22:06:39.411Z,81.67
2019-06-01T22:09:12.659Z,82.46
2019-06-01T22:11:42.237Z,83.49
2019-06-01T22:14:11.947Z,83.40
2019-06-01T22:16:40.810Z,84.67
2019-06-01T22:19:17.561Z,85.48
2019-06-01T22:21:47.696Z,85.56
2019-06-01T22:24:17.677Z,85.87
2019-06-01T22:26:47.151Z,86.08
2019-06-01T22:29:15.967Z,85.98
2019-06-01T22:31:44.758Z,86.21
2019-06-01T22:34:13.505Z,86.97
2019-06-01T22:36:42.319Z,86.91
2019-06-01T22:39:11.074Z,87.35
2019-06-01T22:41:39.849Z,87.78
2019-06-01T22:44:08.734Z,88.44
2019-06-01T22:46:37.496Z,88.92
2019-06-01T22:49:06.403Z,88.56
2019-06-01T22:51:35.155Z,89.13
2019-06-01T22:54:04.012Z,89.02
2019-06-01T22:56:32.851Z,89.42
2019-06-01T22:59:01.635Z,89.78
2019-06-01T23:01:30.433Z,89.35
2019-06-01T23:03:59.319Z,90.21
2019-06-01T23:06:29.218Z,90.96
2019-06-01T23:08:58.541Z,91.65
2019-06-01T23:11:27.555Z,92.30
2019-06-01T23:13:56.372Z,92.51
2019-06-01T23:16:25.601Z,92.82
2019-06-01T23:18:54.863Z,92.69
2019-06-01T23:21:23.789Z,91.59
2019-06-01T23:23:52.567Z,91.88
2019-06-01T23:26:22.103Z,92.07
2019-06-01T23:28:51.967Z,92.45
2019-06-01T23:31:22.317Z,92.25
2019-06-01T23:33:51.227Z,92.27
2019-06-01T23:36:22.393Z,92.78
2019-06-01T23:38:52.206Z,93.17
2019-06-01T23:41:22.453Z,92.82
2019-06-01T23:44:09.913Z,93.23
2019-06-01T23:46:24.919Z,93.29
2019-06-01T23:48:54.511Z,93.36
2019-06-01T23:51:23.488Z,93.53
2019-06-01T23:53:52.282Z,93.96
2019-06-01T23:56:21.063Z,94.24
2019-06-01T23:58:49.861Z,94.88
